Aysenur — ERJR — position and weather

sailwx.info

Track history (hours):
 
Tides and Currents Weather Stations Pressure Air Temp Water Temp Dewpoint Dewpoint Depression Visibility Wind Speed Wind Dir Waves Ship Positions

Aysenur

Last reported at 2014-Jul-28 10:33 UTC. Time now 2014-Jul-31 07:30 UTC.
Position N 44°40' E 035°24'.

Length 81 m; draft 4.3 m.

Type: Cargo ship. MMSI: 214181018.

Date/timePositionNaut miles runAvg speedWind from/ knotsBaromVisibWave heightAir tempDewpointWater temp
2014-Jul-28 10:33N 44°40' E 035°24'15 7.6
2014-Jul-28 08:33N 44°31' E 035°07'7 7.1
2014-Jul-28 07:33N 44°27' E 034°59'7 6.9
2014-Jul-28 06:34N 44°24' E 034°50'7 6.8
2014-Jul-28 05:34N 44°20' E 034°42'7 7.1
2014-Jul-28 04:33N 44°17' E 034°33'7 7.4
2014-Jul-28 03:34N 44°14' E 034°23'9 7.5
2014-Jul-28 02:21N 44°09' E 034°13'298 8.6
2014-Jul-26 15:34N 40°60' E 028°60'7 7.4
2014-Jul-26 14:33N 40°53' E 029°02'7 7.3
2014-Jul-26 13:34N 40°52' E 029°11'0 0.2
2014-Jul-26 12:22N 40°52' E 029°12'0 0.0
2014-Jul-26 11:22N 40°52' E 029°12'0 0.0
2014-Jul-26 10:16N 40°52' E 029°12'0 0.0
2014-Jul-26 09:04N 40°52' E 029°12'0 0.0
2014-Jul-26 08:28N 40°52' E 029°12'0 0.0
2014-Jul-26 07:28N 40°52' E 029°12'0 0.0
2014-Jul-26 06:28N 40°52' E 029°12'0 0.0
2014-Jul-26 05:28N 40°52' E 029°12'0 0.0
2014-Jul-26 04:22N 40°52' E 029°12'0 0.0
2014-Jul-26 03:28N 40°52' E 029°12'0 0.0
2014-Jul-26 02:28N 40°52' E 029°12'0 0.0
2014-Jul-26 01:22N 40°52' E 029°12'0 0.1
2014-Jul-26 00:28N 40°52' E 029°12'0 0.0
2014-Jul-25 23:28N 40°52' E 029°12'0 0.0
2014-Jul-25 22:16N 40°52' E 029°12'0 0.0
2014-Jul-25 21:22N 40°52' E 029°12'0 0.0
2014-Jul-25 20:28N 40°52' E 029°12'0 0.0
2014-Jul-25 19:28N 40°52' E 029°12'0 0.0
2014-Jul-25 18:28N 40°52' E 029°12'0 0.0
2014-Jul-25 17:28N 40°52' E 029°12'0 0.0
2014-Jul-25 16:04N 40°52' E 029°12'0 0.0
2014-Jul-25 15:22N 40°52' E 029°12'0 0.0
2014-Jul-25 14:28N 40°52' E 029°12'0 0.0
2014-Jul-25 13:28N 40°52' E 029°12'0 0.0
2014-Jul-25 12:28N 40°52' E 029°12'0 0.0
2014-Jul-25 11:28N 40°52' E 029°12'0 0.0
2014-Jul-25 10:28N 40°52' E 029°12'4 4.3
2014-Jul-25 09:32N 40°49' E 029°13'8 8.4
2014-Jul-25 08:32N 40°45' E 029°23'  
Track history (hours):
 
Tides and Currents Weather Stations Pressure Air Temp Water Temp Dewpoint Dewpoint Depression Visibility Wind Speed Wind Dir Waves Ship Positions

Aysenur

Last reported at 2014-Jul-28 10:33 UTC. Time now 2014-Jul-31 07:30 UTC.
Position N 44°40' E 035°24'.

Length 81 m; draft 4.3 m.

Type: Cargo ship. MMSI: 214181018.

Date/timePositionNaut miles runAvg speedWind from/ knotsBaromVisibWave heightAir tempDewpointWater temp
2014-Jul-28 10:33N 44°40' E 035°24'15 7.6
2014-Jul-28 08:33N 44°31' E 035°07'7 7.1
2014-Jul-28 07:33N 44°27' E 034°59'7 6.9
2014-Jul-28 06:34N 44°24' E 034°50'7 6.8
2014-Jul-28 05:34N 44°20' E 034°42'7 7.1
2014-Jul-28 04:33N 44°17' E 034°33'7 7.4
2014-Jul-28 03:34N 44°14' E 034°23'9 7.5
2014-Jul-28 02:21N 44°09' E 034°13'298 8.6
2014-Jul-26 15:34N 40°60' E 028°60'7 7.4
2014-Jul-26 14:33N 40°53' E 029°02'7 7.3
2014-Jul-26 13:34N 40°52' E 029°11'0 0.2
2014-Jul-26 12:22N 40°52' E 029°12'0 0.0
2014-Jul-26 11:22N 40°52' E 029°12'0 0.0
2014-Jul-26 10:16N 40°52' E 029°12'0 0.0
2014-Jul-26 09:04N 40°52' E 029°12'0 0.0
2014-Jul-26 08:28N 40°52' E 029°12'0 0.0
2014-Jul-26 07:28N 40°52' E 029°12'0 0.0
2014-Jul-26 06:28N 40°52' E 029°12'0 0.0
2014-Jul-26 05:28N 40°52' E 029°12'0 0.0
2014-Jul-26 04:22N 40°52' E 029°12'0 0.0
2014-Jul-26 03:28N 40°52' E 029°12'0 0.0
2014-Jul-26 02:28N 40°52' E 029°12'0 0.0
2014-Jul-26 01:22N 40°52' E 029°12'0 0.1
2014-Jul-26 00:28N 40°52' E 029°12'0 0.0
2014-Jul-25 23:28N 40°52' E 029°12'0 0.0
2014-Jul-25 22:16N 40°52' E 029°12'0 0.0
2014-Jul-25 21:22N 40°52' E 029°12'0 0.0
2014-Jul-25 20:28N 40°52' E 029°12'0 0.0
2014-Jul-25 19:28N 40°52' E 029°12'0 0.0
2014-Jul-25 18:28N 40°52' E 029°12'0 0.0
2014-Jul-25 17:28N 40°52' E 029°12'0 0.0
2014-Jul-25 16:04N 40°52' E 029°12'0 0.0
2014-Jul-25 15:22N 40°52' E 029°12'0 0.0
2014-Jul-25 14:28N 40°52' E 029°12'0 0.0
2014-Jul-25 13:28N 40°52' E 029°12'0 0.0
2014-Jul-25 12:28N 40°52' E 029°12'0 0.0
2014-Jul-25 11:28N 40°52' E 029°12'0 0.0
2014-Jul-25 10:28N 40°52' E 029°12'4 4.3
2014-Jul-25 09:32N 40°49' E 029°13'8 8.4
2014-Jul-25 08:32N 40°45' E 029°23'  

Dump ship's entire track history